Time;durP1;ratioP1;P1;durP2;ratioP2;P2;SDS_P1;SDS_P2;PMS_P1;PMS_P2;Temp;Humidity;BMP_temperature;BMP_pressure;BME280_temperature;BME280_humidity;BME280_pressure;Samples;Min_cycle;Max_cycle;Signal;HPM_P1;HPM_P2
2021/04/12 00:00:17;;;;;;;7.58;4.70;;;;;;;8.29;67.99;96670.09;1752709;79;21144;-90
2021/04/12 00:03:23;;;;;;;7.45;5.00;;;;;;;8.37;67.67;96658.80;1766782;81;21117;-89
2021/04/12 00:06:05;;;;;;;4.95;3.35;;;;;;;8.41;67.55;96667.78;1723926;81;21099;-89
2021/04/12 00:09:17;;;;;;;5.95;4.45;;;;;;;8.39;67.44;96665.40;1744308;81;21454;-89
2021/04/12 00:11:55;;;;;;;8.53;4.97;;;;;;;8.39;67.27;96667.25;1753413;81;21124;-90
2021/04/12 00:14:33;;;;;;;6.25;5.00;;;;;;;8.44;67.23;96665.92;1755429;81;21113;-89
2021/04/12 00:17:08;;;;;;;7.85;4.03;;;;;;;8.41;67.06;96667.25;1761384;81;21164;-89
2021/04/12 00:20:05;;;;;;;9.75;5.55;;;;;;;8.35;67.13;96666.98;1723386;81;21154;-89
2021/04/12 00:22:49;;;;;;;7.83;5.35;;;;;;;8.31;67.16;96670.66;1740479;81;21077;-90
2021/04/12 00:25:37;;;;;;;6.42;5.00;;;;;;;8.30;67.19;96665.61;1715202;82;21134;-89
2021/04/12 00:28:33;;;;;;;8.25;5.28;;;;;;;8.26;67.05;96662.70;1733969;81;21595;-90
2021/04/12 00:31:08;;;;;;;9.80;5.20;;;;;;;8.14;66.92;96655.55;1744996;81;21127;-89
2021/04/12 00:33:44;;;;;;;8.83;5.42;;;;;;;7.90;67.00;96649.97;1753386;81;21133;-89
2021/04/12 00:36:22;;;;;;;7.40;5.42;;;;;;;7.70;67.06;96655.95;1724298;82;21180;-89
2021/04/12 00:39:24;;;;;;;8.25;5.30;;;;;;;7.62;67.18;96650.39;1708767;82;21502;-89
2021/04/12 00:42:23;;;;;;;7.67;5.30;;;;;;;7.54;67.36;96654.30;1717565;83;21107;-91
2021/04/12 00:45:16;;;;;;;8.40;5.47;;;;;;;7.46;67.54;96650.86;1712944;83;21179;-90
2021/04/12 00:48:17;;;;;;;7.90;5.45;;;;;;;7.42;67.52;96643.16;1718431;83;21132;-90
2021/04/12 00:51:01;;;;;;;7.97;5.80;;;;;;;7.40;67.76;96647.91;1692762;83;21124;-89
2021/04/12 00:53:37;;;;;;;7.47;5.28;;;;;;;7.39;67.95;96644.48;1719419;83;21145;-90
2021/04/12 00:56:40;;;;;;;7.45;5.28;;;;;;;7.40;68.23;96649.23;1710487;83;21155;-90
2021/04/12 00:59:47;;;;;;;7.55;4.92;;;;;;;7.42;68.18;96643.95;1716435;83;21181;-89
2021/04/12 01:02:35;;;;;;;8.33;4.83;;;;;;;7.49;68.09;96643.73;1720392;83;21200;-89
2021/04/12 01:05:20;;;;;;;9.65;5.47;;;;;;;7.56;68.09;96644.28;1721861;83;21508;-89
2021/04/12 01:08:22;;;;;;;9.25;5.35;;;;;;;7.59;68.03;96644.29;1703166;83;21139;-89
2021/04/12 01:11:14;;;;;;;5.78;4.60;;;;;;;7.60;68.03;96640.09;1708873;82;21144;-90
2021/04/12 01:14:03;;;;;;;8.03;5.35;;;;;;;7.68;68.01;96636.16;1706005;83;21136;-89
2021/04/12 01:17:00;;;;;;;8.98;6.03;;;;;;;7.67;68.25;96638.53;1700142;83;21270;-90
2021/04/12 01:19:47;;;;;;;7.17;5.20;;;;;;;7.63;68.43;96641.42;1718380;83;21532;-89
2021/04/12 01:22:45;;;;;;;9.13;5.37;;;;;;;7.64;68.32;96631.92;1707679;83;21179;-90
2021/04/12 01:25:57;;;;;;;6.80;5.35;;;;;;;7.67;68.25;96636.68;1703492;83;21488;-89
2021/04/12 01:29:20;;;;;;;7.55;5.10;;;;;;;7.68;68.20;96629.56;1727419;83;21143;-89
2021/04/12 01:32:22;;;;;;;7.08;5.35;;;;;;;7.70;68.13;96633.52;1724787;81;21180;-89
2021/04/12 01:35:14;;;;;;;8.60;5.62;;;;;;;7.74;68.05;96633.79;1696945;83;21540;-89
2021/04/12 01:38:13;;;;;;;8.00;5.30;;;;;;;7.75;68.06;96636.72;1690629;83;21207;-89
2021/04/12 01:41:13;;;;;;;7.47;4.75;;;;;;;7.75;68.04;96634.08;1678715;84;21144;-89
2021/04/12 01:44:28;;;;;;;7.62;5.80;;;;;;;7.70;68.08;96625.61;1690432;84;21145;-89
2021/04/12 01:47:07;;;;;;;8.98;5.45;;;;;;;7.64;68.15;96624.02;1676926;84;21178;-87
2021/04/12 01:50:02;;;;;;;7.87;5.20;;;;;;;7.56;68.66;96629.77;1690095;84;21512;-90
2021/04/12 01:53:17;;;;;;;8.60;5.62;;;;;;;7.34;69.43;96629.95;1688705;84;21134;-89
2021/04/12 01:55:58;;;;;;;9.35;4.85;;;;;;;7.25;69.71;96638.60;1675823;84;21531;-89
2021/04/12 01:58:58;;;;;;;10.45;5.40;;;;;;;7.23;69.80;96635.43;1687212;84;21191;-89
2021/04/12 02:01:45;;;;;;;6.97;5.30;;;;;;;7.22;69.92;96630.69;1697035;84;21208;-89
2021/04/12 02:04:40;;;;;;;7.87;5.05;;;;;;;7.25;69.82;96625.42;1676214;84;21130;-89
2021/04/12 02:07:15;;;;;;;8.13;5.28;;;;;;;7.32;69.68;96625.97;1703188;84;21129;-89
2021/04/12 02:10:03;;;;;;;8.98;6.00;;;;;;;7.33;69.64;96631.02;1685549;82;21500;-89
2021/04/12 02:13:02;;;;;;;7.25;4.65;;;;;;;7.38;69.43;96631.55;1678518;84;21142;-90
2021/04/12 02:15:43;;;;;;;8.18;4.90;;;;;;;7.42;69.26;96626.02;1683105;84;21154;-89
2021/04/12 02:18:52;;;;;;;7.65;5.00;;;;;;;7.34;69.60;96633.13;1684728;84;21495;-90
2021/04/12 02:21:50;;;;;;;7.90;5.47;;;;;;;7.26;69.81;96630.44;1690347;84;21133;-89
2021/04/12 02:25:05;;;;;;;7.28;5.42;;;;;;;7.25;70.10;96633.33;1675048;84;21506;-89
2021/04/12 02:27:40;;;;;;;8.10;5.20;;;;;;;7.24;69.96;96629.11;1678865;84;21166;-89
2021/04/12 02:30:42;;;;;;;7.78;5.40;;;;;;;7.26;69.73;96626.48;1700354;82;21142;-89
2021/04/12 02:33:37;;;;;;;6.92;4.87;;;;;;;7.27;69.69;96626.75;1690014;84;21194;-89
2021/04/12 02:36:21;;;;;;;7.90;5.60;;;;;;;7.28;69.51;96627.02;1679757;83;21117;-89
2021/04/12 02:39:06;;;;;;;7.03;4.83;;;;;;;7.31;69.41;96632.30;1662711;83;21129;-90
2021/04/12 02:41:55;;;;;;;5.85;4.80;;;;;;;7.32;69.26;96625.47;1685072;84;21158;-89
2021/04/12 02:44:56;;;;;;;7.40;4.42;;;;;;;7.29;69.06;96623.84;1693095;84;21134;-90
2021/04/12 02:47:59;;;;;;;7.62;5.10;;;;;;;7.28;68.92;96632.81;1697232;83;21131;-90
2021/04/12 02:50:50;;;;;;;8.05;5.15;;;;;;;7.22;68.82;96624.09;1688297;84;21235;-90
2021/04/12 02:53:51;;;;;;;7.05;5.05;;;;;;;7.20;68.89;96622.77;1697919;84;21192;-90
2021/04/12 02:56:58;;;;;;;8.08;5.00;;;;;;;7.03;69.06;96615.80;1695470;83;21167;-90
2021/04/12 03:00:05;;;;;;;7.08;4.87;;;;;;;6.82;69.46;96618.05;1705046;83;21127;-89
2021/04/12 03:03:16;;;;;;;8.40;4.78;;;;;;;6.67;69.72;96614.80;1673838;84;21176;-89
2021/04/12 03:06:14;;;;;;;8.25;4.83;;;;;;;6.74;69.81;96619.83;1686214;84;21527;-90
2021/04/12 03:09:06;;;;;;;7.10;4.92;;;;;;;6.60;69.62;96616.04;1686457;84;21133;-91
2021/04/12 03:11:58;;;;;;;5.65;4.33;;;;;;;6.27;69.79;96606.56;1690569;84;21172;-90
2021/04/12 03:17:55;;;;;;;4.97;3.98;;;;;;;6.06;72.18;96610.34;1810287;78;23046;-90
2021/04/12 03:20:56;;;;;;;7.03;4.67;;;;;;;6.03;72.27;96612.14;1774144;80;21171;-90
2021/04/12 03:24:05;;;;;;;8.23;4.55;;;;;;;6.19;72.40;96611.75;1775638;80;21455;-89
2021/04/12 03:27:00;;;;;;;20.50;11.22;;;;;;;6.49;71.96;96611.23;1802357;79;21142;-91
2021/04/12 03:29:52;;;;;;;11.73;6.25;;;;;;;6.52;70.88;96614.68;1777272;79;21131;-91
2021/04/12 03:35:30;;;;;;;15.30;8.58;;;;;;;6.07;71.07;96622.98;1788129;78;23047;-90
2021/04/12 03:38:28;;;;;;;6.35;4.53;;;;;;;5.89;71.17;96619.59;1765471;80;21126;-90
2021/04/12 03:41:13;;;;;;;6.37;4.15;;;;;;;5.75;71.85;96614.45;1768329;80;21110;-91
2021/04/12 03:44:32;;;;;;;5.10;3.77;;;;;;;5.65;72.58;96613.05;1762849;80;21121;-90
2021/04/12 03:47:11;;;;;;;6.65;3.42;;;;;;;5.67;72.86;96607.02;1761861;80;21117;-90
2021/04/12 03:49:49;;;;;;;5.62;3.87;;;;;;;5.74;72.71;96607.60;1755885;80;21393;-90
2021/04/12 03:52:59;;;;;;;7.40;3.62;;;;;;;5.83;72.48;96604.81;1754794;80;21125;-91
2021/04/12 03:55:59;;;;;;;6.72;3.72;;;;;;;5.80;71.93;96598.74;1751752;80;21078;-90
2021/04/12 03:58:47;;;;;;;5.28;3.30;;;;;;;5.56;71.52;96603.47;1753366;80;21124;-91
2021/04/12 04:01:38;;;;;;;7.80;3.70;;;;;;;5.13;72.01;96595.07;1756022;80;21164;-89
2021/04/12 04:04:20;;;;;;;;;;;;;;;5.22;73.20;96595.45;1711044;80;21082;-89
2021/04/12 04:07:15;;;;;;;5.47;3.55;;;;;;;5.34;72.81;96598.73;1743842;80;20166;-90
2021/04/12 04:09:56;;;;;;;6.05;4.00;;;;;;;5.21;72.46;96595.98;1754064;80;21145;-90
2021/04/12 04:12:48;;;;;;;8.00;4.37;;;;;;;5.24;72.59;96596.80;1756600;80;21121;-89
2021/04/12 04:15:24;;;;;;;8.63;5.33;;;;;;;5.23;73.82;96593.09;1745572;81;21120;-90
2021/04/12 04:18:29;;;;;;;6.72;3.75;;;;;;;5.31;74.42;96605.28;1721124;83;21269;-90
2021/04/12 04:21:21;;;;;;;18.00;9.80;;;;;;;5.95;74.16;96609.45;1717382;82;21270;-90
2021/04/12 04:24:22;;;;;;;33.73;15.10;;;;;;;7.14;73.55;96610.06;1742012;82;21476;-91
2021/04/12 04:27:21;;;;;;;38.98;20.12;;;;;;;8.18;71.92;96614.38;1715156;82;21121;-88
2021/04/12 04:30:20;;;;;;;29.42;15.00;;;;;;;9.05;70.02;96614.38;1713691;82;21489;-91
2021/04/12 04:33:41;;;;;;;17.27;8.85;;;;;;;9.87;68.49;96619.64;1717232;82;21130;-90
2021/04/12 04:37:02;;;;;;;10.58;6.33;;;;;;;10.78;67.19;96618.76;1715256;83;21156;-90
2021/04/12 04:40:02;;;;;;;11.22;7.05;;;;;;;11.74;64.29;96617.73;1715088;82;21145;-90
2021/04/12 04:43:13;;;;;;;14.43;8.55;;;;;;;12.29;62.97;96614.09;1711638;83;21293;-89
2021/04/12 04:46:06;;;;;;;11.12;7.50;;;;;;;13.20;63.00;96608.36;1727331;82;21169;-91
2021/04/12 04:49:13;;;;;;;12.53;6.80;;;;;;;14.78;61.66;96612.47;1726186;82;21203;-90
2021/04/12 04:51:55;;;;;;;8.53;5.50;;;;;;;15.77;57.76;96617.89;1707319;82;21176;-91
2021/04/12 04:54:59;;;;;;;12.53;6.78;;;;;;;15.14;53.79;96615.02;1771561;78;23038;-90
2021/04/12 04:57:59;;;;;;;4.92;3.20;;;;;;;14.73;52.75;96609.36;1756166;80;21149;-90
2021/04/12 05:00:53;;;;;;;4.53;3.22;;;;;;;14.70;53.46;96619.32;1754056;80;21540;-89
2021/04/12 05:04:02;;;;;;;3.50;2.62;;;;;;;15.15;52.72;96610.70;1767647;80;21115;-90
2021/04/12 05:06:43;;;;;;;8.60;4.70;;;;;;;16.01;52.29;96608.87;1776426;80;21494;-90
2021/04/12 05:09:41;;;;;;;9.15;4.75;;;;;;;16.60;53.58;96611.87;1707489;83;21548;-91
2021/04/12 05:12:45;;;;;;;9.73;4.92;;;;;;;17.23;50.59;96610.13;1715752;82;21653;-90
2021/04/12 05:15:33;;;;;;;5.97;3.83;;;;;;;16.70;48.30;96610.80;1726183;82;21499;-90
2021/04/12 05:18:38;;;;;;;5.03;3.58;;;;;;;18.31;50.12;96604.05;1792427;78;23067;-90
2021/04/12 05:21:46;;;;;;;5.45;3.15;;;;;;;20.01;49.96;96606.09;1775273;79;21111;-90
2021/04/12 05:24:35;;;;;;;5.53;3.17;;;;;;;20.73;46.36;96603.78;1788367;79;21099;-90
2021/04/12 05:27:50;;;;;;;5.83;3.22;;;;;;;20.67;42.82;96594.92;1766882;79;21464;-90
2021/04/12 05:30:38;;;;;;;6.87;3.35;;;;;;;20.36;42.07;96593.66;1774409;80;21111;-91
2021/04/12 05:33:16;;;;;;;6.78;3.27;;;;;;;21.42;44.57;96588.81;1745371;80;21118;-89
2021/04/12 05:36:14;;;;;;;7.40;4.17;;;;;;;23.42;44.22;96585.02;1713377;82;21507;-90
2021/04/12 05:39:05;;;;;;;5.55;3.27;;;;;;;24.67;40.14;96588.16;1744874;81;21135;-90
2021/04/12 05:41:58;;;;;;;9.30;3.83;;;;;;;24.37;36.95;96595.74;1721930;82;21127;-90
2021/04/12 05:44:53;;;;;;;6.03;3.30;;;;;;;24.23;37.80;96588.75;1756634;81;21494;-90
2021/04/12 05:47:29;;;;;;;6.72;3.10;;;;;;;24.77;35.62;96584.22;1744618;82;21505;-90
2021/04/12 05:50:19;;;;;;;7.97;3.85;;;;;;;25.05;35.78;96587.02;1732621;82;21601;-90
2021/04/12 05:53:42;;;;;;;10.23;6.28;;;;;;;25.48;34.24;96588.77;1741004;81;21501;-91
2021/04/12 05:56:57;;;;;;;7.53;4.65;;;;;;;25.07;32.06;96585.52;1739141;82;21183;-90
2021/04/12 05:59:46;;;;;;;21.48;15.35;;;;;;;24.49;31.82;96596.86;1726016;82;21123;-91
2021/04/12 06:02:44;;;;;;;14.98;9.73;;;;;;;24.50;33.99;96587.58;1734172;82;21160;-91
2021/04/12 06:05:42;;;;;;;12.78;8.80;;;;;;;25.53;33.55;96583.78;1735850;82;21213;-91
2021/04/12 06:09:05;;;;;;;10.48;6.12;;;;;;;27.08;33.77;96579.56;1739373;82;21544;-90
2021/04/12 06:12:09;;;;;;;6.95;4.30;;;;;;;27.74;30.56;96588.19;1723795;82;21494;-92
2021/04/12 06:15:21;;;;;;;7.45;4.12;;;;;;;28.42;30.25;96595.45;1730962;82;21108;-91
2021/04/12 06:17:57;;;;;;;5.40;3.72;;;;;;;28.31;30.22;96600.96;1728765;82;21134;-91
2021/04/12 06:20:54;;;;;;;8.03;4.25;;;;;;;29.13;30.33;96599.23;1728686;82;21544;-92
2021/04/12 06:23:44;;;;;;;8.23;4.90;;;;;;;30.16;30.06;96604.52;1757469;81;21119;-89
2021/04/12 06:26:42;;;;;;;8.85;4.95;;;;;;;31.27;29.22;96597.89;1710474;82;21562;-91
2021/04/12 06:29:32;;;;;;;5.87;3.98;;;;;;;32.43;28.65;96594.97;1712957;83;21140;-91
2021/04/12 06:32:47;;;;;;;5.87;3.60;;;;;;;33.55;27.92;96595.70;1729515;83;21194;-90
2021/04/12 06:35:40;;;;;;;8.15;3.72;;;;;;;33.46;25.63;96592.00;1714184;83;21170;-91
2021/04/12 06:38:52;;;;;;;7.97;4.22;;;;;;;33.68;26.25;96602.66;1726698;83;21175;-93
2021/04/12 06:41:42;;;;;;;7.42;3.80;;;;;;;33.67;24.74;96602.48;1710175;82;21497;-91
2021/04/12 06:44:39;;;;;;;4.62;3.22;;;;;;;34.14;25.28;96596.59;1718566;83;21171;-92
2021/04/12 06:47:46;;;;;;;5.65;3.52;;;;;;;35.06;24.75;96607.04;1718763;83;21136;-91
2021/04/12 06:50:39;;;;;;;5.58;3.20;;;;;;;36.10;24.16;96600.38;1738671;81;21306;-91
2021/04/12 06:53:44;;;;;;;3.62;2.67;;;;;;;36.97;23.71;96600.41;1725471;82;21489;-90
2021/04/12 06:56:23;;;;;;;4.33;2.67;;;;;;;37.51;22.43;96608.80;1719251;82;21168;-92
2021/04/12 06:59:02;;;;;;;3.47;2.10;;;;;;;38.08;22.48;96605.70;1712931;82;21147;-91
2021/04/12 07:02:08;;;;;;;3.00;2.42;;;;;;;38.75;20.69;96606.95;1741137;82;21108;-91
2021/04/12 07:04:56;;;;;;;3.47;2.45;;;;;;;37.13;18.70;96612.61;1744870;82;21130;-91
2021/04/12 07:08:08;;;;;;;4.58;2.75;;;;;;;36.58;20.56;96609.52;1695397;82;21123;-90
2021/04/12 07:11:14;;;;;;;2.72;1.77;;;;;;;37.63;20.26;96618.98;1738733;82;21526;-91
2021/04/12 07:14:06;;;;;;;3.70;2.17;;;;;;;38.06;19.94;96608.16;1722107;82;21276;-90
2021/04/12 07:16:51;;;;;;;4.08;2.45;;;;;;;38.55;19.50;96612.94;1736193;82;21134;-91
2021/04/12 07:19:59;;;;;;;2.62;1.57;;;;;;;38.96;19.23;96611.34;1737192;82;21123;-91
2021/04/12 07:22:47;;;;;;;3.75;1.72;;;;;;;38.99;18.23;96613.18;1713667;82;21135;-92
2021/04/12 07:25:59;;;;;;;3.52;1.90;;;;;;;39.02;17.92;96608.87;1737823;82;21185;-91
2021/04/12 07:28:58;;;;;;;3.22;1.87;;;;;;;38.63;17.49;96610.63;1733067;82;21158;-92
2021/04/12 07:31:41;;;;;;;;;;;;;;;38.62;17.68;96607.70;1740985;82;21135;-91
2021/04/12 07:34:31;;;;;;;3.20;1.60;;;;;;;38.07;15.31;96608.31;1738487;82;20128;-91
2021/04/12 07:37:43;;;;;;;1.90;1.32;;;;;;;36.95;17.13;96608.39;1751816;82;21120;-91
2021/04/12 07:40:38;;;;;;;3.87;1.65;;;;;;;37.97;17.49;96602.00;1734849;82;21140;-92
2021/04/12 07:43:43;;;;;;;2.65;1.52;;;;;;;38.14;15.97;96603.84;1731886;82;21130;-91
2021/04/12 07:46:55;;;;;;;3.05;1.80;;;;;;;38.55;17.27;96604.63;1747830;81;21147;-91
2021/04/12 07:50:04;;;;;;;2.20;1.60;;;;;;;39.41;16.92;96615.36;1737702;82;21138;-90
2021/04/12 07:53:07;;;;;;;5.33;1.57;;;;;;;40.37;16.13;96604.28;1730966;82;21499;-93
2021/04/12 07:55:52;;;;;;;3.47;1.87;;;;;;;39.82;16.05;96611.61;1737578;82;21135;-92
2021/04/12 07:59:07;;;;;;;3.80;1.90;;;;;;;40.09;15.85;96600.20;1737413;82;21273;-93
2021/04/12 08:02:11;;;;;;;1.65;1.50;;;;;;;39.55;14.87;96610.39;1720213;83;21136;-93
2021/04/12 08:05:04;;;;;;;3.08;1.80;;;;;;;38.96;15.34;96615.50;1712573;82;21120;-92
2021/04/12 08:08:05;;;;;;;3.33;2.20;;;;;;;38.05;15.26;96606.02;1738662;82;21135;-92
2021/04/12 08:10:49;;;;;;;3.50;1.80;;;;;;;37.71;15.92;96611.91;1744541;81;21181;-93
2021/04/12 08:13:45;;;;;;;2.75;1.80;;;;;;;38.30;16.20;96609.13;1719162;82;21139;-92
2021/04/12 08:17:01;;;;;;;2.47;1.45;;;;;;;38.18;15.68;96603.87;1734870;81;21174;-94
2021/04/12 08:19:55;;;;;;;3.22;1.95;;;;;;;37.20;14.30;96605.28;1726200;82;21143;-92
2021/04/12 08:23:05;;;;;;;2.40;1.82;;;;;;;35.17;15.46;96592.91;1731372;82;21179;-91
2021/04/12 08:25:52;;;;;;;5.62;1.80;;;;;;;34.11;16.28;96600.99;1727291;82;21142;-91
2021/04/12 08:29:16;;;;;;;3.22;1.70;;;;;;;33.31;16.61;96585.43;1734082;82;21464;-91
2021/04/12 08:32:26;;;;;;;2.77;1.70;;;;;;;31.72;17.62;96588.75;1725489;82;21116;-91
2021/04/12 08:34:59;;;;;;;2.15;1.65;;;;;;;30.46;18.70;96601.83;1724327;82;21131;-91
2021/04/12 08:38:16;;;;;;;3.52;2.00;;;;;;;30.04;19.33;96601.07;1730928;82;21181;-93
2021/04/12 08:41:26;;;;;;;3.60;1.72;;;;;;;30.95;19.61;96594.19;1733034;82;21119;-91
2021/04/12 08:44:28;;;;;;;2.33;1.82;;;;;;;32.30;18.74;96598.16;1720906;82;21135;-92
2021/04/12 08:47:13;;;;;;;3.72;2.02;;;;;;;33.67;19.71;96596.22;1716812;82;21157;-89
2021/04/12 08:50:36;;;;;;;5.85;1.75;;;;;;;34.97;18.96;96597.27;1721943;82;21144;-93
2021/04/12 08:53:24;;;;;;;3.52;1.57;;;;;;;35.45;18.20;96594.03;1723182;82;21134;-92
2021/04/12 08:56:38;;;;;;;3.87;2.00;;;;;;;34.61;16.73;96598.27;1722131;82;21147;-93
2021/04/12 08:59:51;;;;;;;2.72;1.95;;;;;;;32.03;17.68;96596.86;1720192;82;21139;-91
2021/04/12 09:02:51;;;;;;;2.95;1.60;;;;;;;27.36;20.83;96599.82;1725680;82;21155;-93
2021/04/12 09:05:38;;;;;;;;;;;;;;;24.73;24.25;96609.70;1735947;82;21167;-92
2021/04/12 09:08:56;;;;;;;2.58;1.85;;;;;;;23.47;25.43;96595.52;1741040;82;20206;-91
2021/04/12 09:11:54;;;;;;;3.92;1.87;;;;;;;22.68;26.81;96591.98;1738568;82;21143;-92
2021/04/12 09:14:30;;;;;;;3.85;1.72;;;;;;;21.60;28.52;96588.66;1742559;82;21297;-92
2021/04/12 09:17:38;;;;;;;1.47;1.12;;;;;;;21.07;28.69;96597.53;1736603;82;21120;-91
2021/04/12 09:20:35;;;;;;;1.27;0.90;;;;;;;21.36;29.64;96608.50;1716852;83;21532;-92
2021/04/12 09:23:36;;;;;;;3.33;1.30;;;;;;;20.93;29.83;96599.86;1740725;81;21122;-92
2021/04/12 09:26:44;;;;;;;2.00;1.20;;;;;;;20.44;30.57;96602.20;1735974;81;21154;-92
2021/04/12 09:30:01;;;;;;;2.17;1.20;;;;;;;20.69;30.79;96597.52;1711199;83;21613;-91
2021/04/12 09:32:59;;;;;;;3.10;1.30;;;;;;;20.73;30.87;96594.34;1711563;83;21139;-92
2021/04/12 09:36:01;;;;;;;4.10;1.17;;;;;;;20.20;31.51;96592.03;1721032;82;21230;-92
2021/04/12 09:39:03;;;;;;;5.92;3.33;;;;;;;19.67;32.45;96601.95;1723847;82;21088;-93
2021/04/12 09:42:00;;;;;;;2.00;1.27;;;;;;;19.46;32.39;96582.67;1714501;83;21506;-91
2021/04/12 09:44:49;;;;;;;2.05;1.30;;;;;;;19.74;32.96;96585.49;1732586;82;21124;-92
2021/04/12 09:47:37;;;;;;;4.78;2.77;;;;;;;19.33;33.05;96589.16;1727562;83;21489;-92
2021/04/12 09:54:11;;;;;;;4.90;2.02;;;;;;;18.14;36.23;96590.73;1873581;75;21258;-91
2021/04/12 09:57:34;;;;;;;3.52;2.05;;;;;;;17.57;36.38;96595.78;1868330;75;21182;-91
2021/04/12 10:00:19;;;;;;;3.98;2.33;;;;;;;17.36;37.77;96595.19;1856786;76;21469;-92
2021/04/12 10:03:15;;;;;;;3.20;2.02;;;;;;;17.37;38.35;96600.77;1848522;76;21475;-92
2021/04/12 10:06:28;;;;;;;4.05;1.82;;;;;;;17.80;37.63;96594.44;1849255;77;21110;-92
2021/04/12 10:09:32;;;;;;;6.45;3.02;;;;;;;17.86;37.47;96601.73;1854361;76;21091;-91
2021/04/12 10:12:38;;;;;;;3.27;1.80;;;;;;;18.12;36.88;96602.35;1835639;77;21124;-91
2021/04/12 10:15:22;;;;;;;4.25;2.52;;;;;;;18.46;36.90;96599.98;1865259;76;21095;-91
2021/04/12 10:18:10;;;;;;;4.45;2.12;;;;;;;18.50;36.55;96603.56;1832906;75;21073;-91
2021/04/12 10:20:45;;;;;;;14.38;7.83;;;;;;;18.34;36.20;96606.06;1797502;78;21135;-91
2021/04/12 10:23:32;;;;;;;4.50;2.65;;;;;;;18.25;36.37;96603.20;1769756;80;21164;-91
2021/04/12 10:26:11;;;;;;;10.53;5.20;;;;;;;17.91;37.40;96602.34;1788151;78;21128;-91
2021/04/12 10:29:11;;;;;;;5.08;2.70;;;;;;;17.77;38.29;96599.12;1829069;77;21155;-92
2021/04/12 10:32:11;;;;;;;3.50;1.93;;;;;;;17.66;38.07;96609.39;1804904;78;21469;-90
2021/04/12 10:34:48;;;;;;;4.10;2.22;;;;;;;17.93;37.84;96599.34;1792231;79;21591;-91
2021/04/12 10:37:39;;;;;;;6.92;2.60;;;;;;;18.08;37.73;96598.20;1783216;79;22281;-92
2021/04/12 10:40:45;;;;;;;3.45;1.80;;;;;;;18.01;38.13;96599.27;1786462;79;21232;-91
2021/04/12 10:46:20;;;;;;;6.17;2.62;;;;;;;17.56;39.51;96601.70;1802334;79;23411;-91
2021/04/12 10:48:59;;;;;;;5.12;2.95;;;;;;;17.58;39.39;96591.44;1769128;80;21121;-90
2021/04/12 10:52:08;;;;;;;5.15;2.37;;;;;;;17.89;39.47;96597.87;1753489;80;21645;-91
2021/04/12 10:54:59;;;;;;;6.28;2.72;;;;;;;18.01;38.88;96601.94;1774301;80;21081;-90
2021/04/12 10:58:05;;;;;;;4.85;2.85;;;;;;;18.15;38.25;96596.33;1784251;79;21080;-90
2021/04/12 11:00:52;;;;;;;4.25;2.25;;;;;;;18.26;38.49;96595.38;1772033;80;21154;-91
2021/04/12 11:03:49;;;;;;;5.87;2.83;;;;;;;18.38;38.19;96601.60;1705187;82;21134;-92
2021/04/12 11:07:03;;;;;;;7.60;3.17;;;;;;;18.32;38.70;96601.59;1776785;80;21108;-92
2021/04/12 11:09:39;;;;;;;5.58;2.40;;;;;;;18.35;39.40;96596.89;1775668;80;21154;-91
2021/04/12 11:12:20;;;;;;;5.87;2.40;;;;;;;18.57;38.34;96597.09;1794995;79;21124;-91
2021/04/12 11:15:00;;;;;;;2.55;1.95;;;;;;;18.37;37.87;96604.06;1745391;81;21084;-92
2021/04/12 11:17:45;;;;;;;5.15;2.50;;;;;;;18.53;38.17;96600.77;1729096;81;21152;-90
2021/04/12 11:20:20;;;;;;;4.55;2.75;;;;;;;18.32;38.68;96601.59;1718309;83;21220;-91
2021/04/12 11:22:58;;;;;;;3.40;2.40;;;;;;;17.91;39.27;96602.34;1733211;83;21136;-91
2021/04/12 11:26:04;;;;;;;5.95;3.10;;;;;;;17.68;40.13;96606.38;1739073;82;21148;-88
2021/04/12 11:29:00;;;;;;;4.95;2.98;;;;;;;17.50;40.46;96607.03;1716198;83;21158;-91
2021/04/12 11:32:05;;;;;;;6.78;3.27;;;;;;;17.65;40.26;96609.16;1719003;83;21115;-91
2021/04/12 11:34:46;;;;;;;4.33;2.37;;;;;;;18.03;41.10;96614.50;1706439;83;21556;-90
2021/04/12 11:37:44;;;;;;;5.28;2.65;;;;;;;18.31;39.39;96605.94;1703171;83;21164;-89
2021/04/12 11:40:22;;;;;;;4.17;2.22;;;;;;;18.34;39.29;96603.38;1702416;84;21116;-91
2021/04/12 11:42:56;;;;;;;7.15;2.80;;;;;;;18.16;39.02;96619.39;1733586;82;21124;-92
2021/04/12 11:45:37;;;;;;;4.92;2.80;;;;;;;18.01;39.10;96613.23;1725902;83;21143;-91
2021/04/12 11:48:22;;;;;;;5.92;3.33;;;;;;;17.96;39.63;96616.89;1728610;83;21485;-91
2021/04/12 11:51:06;;;;;;;7.22;3.20;;;;;;;17.44;40.67;96621.70;1728441;83;21096;-91
2021/04/12 11:53:56;;;;;;;6.33;3.67;;;;;;;17.17;41.21;96618.35;1707279;83;21190;-91
2021/04/12 11:56:55;;;;;;;6.22;3.27;;;;;;;16.92;41.25;96613.84;1728236;83;21146;-91
2021/04/12 12:03:24;;;;;;;7.17;3.37;;;;;;;16.97;41.68;96620.91;1782458;79;23021;-90
2021/04/12 12:06:18;;;;;;;5.65;3.08;;;;;;;16.86;41.44;96629.83;1756969;80;21120;-90
2021/04/12 12:09:02;;;;;;;4.60;2.90;;;;;;;16.92;42.06;96633.92;1773114;80;21154;-91
2021/04/12 12:12:00;;;;;;;6.58;3.62;;;;;;;17.01;42.01;96632.00;1773680;80;21113;-90
2021/04/12 12:14:39;;;;;;;5.30;3.22;;;;;;;16.72;42.23;96633.23;1808448;79;21102;-90
2021/04/12 12:17:26;;;;;;;7.45;3.75;;;;;;;16.61;42.28;96634.88;1786430;79;21508;-90
2021/04/12 12:20:01;;;;;;;7.45;3.50;;;;;;;16.46;43.09;96635.33;1793008;79;21105;-90
2021/04/12 12:22:52;;;;;;;7.20;4.00;;;;;;;16.33;42.87;96642.44;1796084;79;21082;-90
2021/04/12 12:25:47;;;;;;;7.85;3.87;;;;;;;16.28;42.97;96642.57;1808498;79;21107;-89
2021/04/12 12:28:49;;;;;;;7.58;3.65;;;;;;;16.25;43.16;96642.42;1792488;79;21121;-91
2021/04/12 12:31:31;;;;;;;9.13;3.85;;;;;;;16.35;43.33;96641.33;1786633;79;21082;-90
2021/04/12 12:34:24;;;;;;;7.53;3.80;;;;;;;16.57;43.42;96637.94;1800644;79;21133;-90
2021/04/12 12:36:59;;;;;;;10.48;3.50;;;;;;;16.68;43.61;96634.97;1773464;79;21102;-90
2021/04/12 12:39:44;;;;;;;8.28;4.17;;;;;;;16.73;43.36;96644.17;1786649;79;21119;-91
2021/04/12 12:42:22;;;;;;;4.95;3.67;;;;;;;16.76;43.19;96648.36;1784770;79;21094;-89
2021/04/12 12:44:54;;;;;;;7.37;3.62;;;;;;;16.87;43.60;96639.43;1798126;79;21106;-90
2021/04/12 12:47:25;;;;;;;7.53;3.45;;;;;;;17.06;43.42;96641.22;1803578;79;21109;-90
2021/04/12 12:49:55;;;;;;;;;;;;;;;17.16;42.93;96646.22;1785385;79;21179;-90
2021/04/12 12:52:39;;;;;;;7.90;4.25;;;;;;;17.18;42.80;96649.95;1786813;79;20348;-91
2021/04/12 12:55:15;;;;;;;8.68;3.95;;;;;;;17.03;43.11;96650.42;1795434;79;21109;-91
2021/04/12 12:57:44;;;;;;;7.62;4.12;;;;;;;17.12;43.11;96641.83;1787868;79;21123;-92
2021/04/12 13:00:35;;;;;;;6.70;4.13;;;;;;;17.14;43.13;96653.80;1789358;79;21172;-90
2021/04/12 13:03:17;;;;;;;;;;;;;;;17.28;43.48;96639.42;1791028;79;21109;-92
2021/04/12 13:05:48;;;;;;;9.05;4.47;;;;;;;17.24;43.03;96637.94;1786352;80;20147;-91
2021/04/12 13:08:29;;;;;;;7.90;4.12;;;;;;;17.16;43.45;96638.19;1773140;80;21109;-91
2021/04/12 13:10:57;;;;;;;8.30;4.37;;;;;;;17.25;43.46;96644.08;1770769;79;21540;-90
2021/04/12 13:13:37;;;;;;;6.95;3.85;;;;;;;17.34;43.44;96638.94;1802659;79;21515;-90
2021/04/12 13:16:18;;;;;;;7.03;4.35;;;;;;;17.32;43.15;96633.67;1775633;80;21143;-91
2021/04/12 13:19:03;;;;;;;7.37;4.10;;;;;;;17.05;43.11;96640.99;1778523;79;21105;-91
2021/04/12 13:21:35;;;;;;;6.60;4.30;;;;;;;17.05;43.98;96642.33;1781969;80;21086;-91
2021/04/12 13:24:19;;;;;;;10.78;4.62;;;;;;;17.10;43.87;96648.84;1775895;79;21131;-91
2021/04/12 13:27:06;;;;;;;11.10;4.90;;;;;;;17.11;43.77;96641.59;1776019;79;21188;-90
2021/04/12 13:29:48;;;;;;;8.88;4.05;;;;;;;17.11;44.01;96651.76;1786451;80;21478;-89
2021/04/12 13:32:26;;;;;;;8.00;4.72;;;;;;;17.15;44.13;96650.01;1779760;80;21240;-90
2021/04/12 13:35:10;;;;;;;12.05;4.90;;;;;;;17.19;44.20;96648.84;1773018;79;21479;-90
2021/04/12 13:37:52;;;;;;;8.63;4.37;;;;;;;17.26;44.18;96650.45;1809562;79;21120;-90
2021/04/12 13:40:24;;;;;;;7.70;4.70;;;;;;;17.29;44.30;96647.69;1801233;79;21487;-89
2021/04/12 13:43:05;;;;;;;11.50;4.45;;;;;;;17.33;44.21;96654.00;1797153;79;21130;-90
2021/04/12 13:45:42;;;;;;;7.53;4.58;;;;;;;17.31;44.07;96652.17;1802574;79;21580;-90
2021/04/12 13:48:15;;;;;;;8.80;4.15;;;;;;;17.32;44.07;96653.77;1781095;79;21161;-89
2021/04/12 13:51:05;;;;;;;9.35;4.53;;;;;;;17.29;44.17;96652.49;1782297;79;21086;-90
2021/04/12 13:54:00;;;;;;;8.63;5.22;;;;;;;17.23;44.01;96643.62;1785262;79;21484;-91
2021/04/12 13:56:38;;;;;;;8.23;4.72;;;;;;;17.25;44.24;96649.44;1780469;79;21109;-90